Погода Верхнеянченковна неделю

Ростовская область, Россия

19 - 25 мая
  • 19мая
    Сегодня
    +9°
    +22°
    Небольшая облачность, ливень
    ВремяПогодаТемператураВлажностьДавлениеВетер, м/сВероятность осадков
    00:00Практически безоблачно+12°C86 %761 мм1.9 м/с3 %
    03:00Практически безоблачно+10°C90 %760 мм1.9 м/с6 %
    06:00Практически безоблачно+11°C84 %760 мм1.6 м/с10 %
    09:00Ясно и безоблачно+17°C63 %761 мм0.7 м/с5 %
    12:00Пасмурно, сплошная облачность+22°C47 %761 мм1.8 м/с14 %
    15:00Небольшая облачность, ливень+20°C53 %760 мм3.6 м/с36 %
    18:00Небольшая облачность+19°C62 %760 мм1.7 м/с28 %
    21:00Ясно и безоблачно+13°C91 %761 мм1.6 м/с3 %
  • 20мая
    Понедельник
    +10°
    +23°
    Ясно и безоблачно
    ВремяПогодаТемператураВлажностьДавлениеВетер, м/сВероятность осадков
    00:00Ясно и безоблачно+11°C95 %761 мм1.9 м/с2 %
    03:00Ясно и безоблачно+11°C92 %761 мм1.4 м/с2 %
    06:00Ясно и безоблачно+12°C90 %762 мм2.1 м/с2 %
    09:00Ясно и безоблачно+19°C55 %762 мм2.0 м/с2 %
    12:00Практически безоблачно+22°C42 %762 мм1.3 м/с8 %
    15:00Ясно и безоблачно+23°C39 %762 мм0.9 м/с3 %
    18:00Ясно и безоблачно+22°C40 %761 мм1.0 м/с3 %
    21:00Ясно и безоблачно+17°C63 %762 мм2.2 м/с2 %
  • 21мая
    Вторник
    +11°
    +26°
    Облачно с прояснениями
    ВремяПогодаТемператураВлажностьДавлениеВетер, м/сВероятность осадков
    00:00Ясно и безоблачно+14°C74 %762 мм2.3 м/с2 %
    03:00Ясно и безоблачно+13°C79 %763 мм0.9 м/с2 %
    06:00Ясно и безоблачно+13°C78 %763 мм2.2 м/с2 %
    09:00Ясно и безоблачно+21°C45 %764 мм2.3 м/с2 %
    12:00Практически безоблачно+25°C32 %763 мм3.0 м/с2 %
    15:00Облачно с прояснениями+26°C29 %763 мм2.6 м/с2 %
    18:00Практически безоблачно+25°C33 %762 мм2.4 м/с2 %
    21:00Ясно и безоблачно+18°C49 %763 мм3.0 м/с2 %
  • 22мая
    Среда
    +12°
    +27°
    Практически безоблачно
    ВремяПогодаТемператураВлажностьДавлениеВетер, м/сВероятность осадков
    00:00Ясно и безоблачно+16°C50 %762 мм3.0 м/с2 %
    03:00Ясно и безоблачно+13°C59 %762 мм2.6 м/с2 %
    06:00Ясно и безоблачно+13°C62 %762 мм2.6 м/с2 %
    09:00Ясно и безоблачно+22°C39 %762 мм2.9 м/с2 %
    12:00Ясно и безоблачно+26°C26 %762 мм4.8 м/с2 %
    15:00Практически безоблачно+26°C26 %760 мм5.7 м/с2 %
    18:00Ясно и безоблачно+25°C29 %760 мм4.2 м/с2 %
    21:00Ясно и безоблачно+19°C42 %760 мм2.7 м/с2 %
  • 23мая
    Четверг
    +13°
    +28°
    Ясно и безоблачно
    ВремяПогодаТемператураВлажностьДавлениеВетер, м/сВероятность осадков
    00:00Ясно и безоблачно+16°C45 %760 мм2.8 м/с2 %
    03:00Ясно и безоблачно+14°C49 %760 мм3.1 м/с2 %
    06:00Ясно и безоблачно+14°C60 %760 мм3.1 м/с2 %
    09:00Ясно и безоблачно+21°C45 %761 мм4.2 м/с2 %
    12:00Ясно и безоблачно+25°C25 %760 мм5.6 м/с2 %
    15:00Ясно и безоблачно+27°C21 %759 мм6.0 м/с2 %
    18:00Ясно и безоблачно+25°C23 %759 мм5.3 м/с2 %
    21:00Ясно и безоблачно+20°C32 %760 мм4.6 м/с2 %
Мы используем cookies
Соглашаюсь